sensor_id;sensor_type;location;lat;lon;timestamp;temperature;humidity
3548;DHT22;1788;49.400;11.092;2023-03-23T00:04:52;13.20;50.40
3548;DHT22;1788;49.400;11.092;2023-03-23T00:07:20;13.30;50.60
3548;DHT22;1788;49.400;11.092;2023-03-23T00:09:46;13.30;50.60
3548;DHT22;1788;49.400;11.092;2023-03-23T00:12:12;13.30;50.50
3548;DHT22;1788;49.400;11.092;2023-03-23T00:14:39;13.30;50.50
3548;DHT22;1788;49.400;11.092;2023-03-23T00:17:06;13.30;50.50
3548;DHT22;1788;49.400;11.092;2023-03-23T00:19:32;13.30;50.50
3548;DHT22;1788;49.400;11.092;2023-03-23T00:21:59;13.30;50.60
3548;DHT22;1788;49.400;11.092;2023-03-23T00:24:25;13.30;50.60
3548;DHT22;1788;49.400;11.092;2023-03-23T00:26:52;13.20;50.50
3548;DHT22;1788;49.400;11.092;2023-03-23T00:31:45;13.20;50.60
3548;DHT22;1788;49.400;11.092;2023-03-23T00:34:12;13.20;50.70
3548;DHT22;1788;49.400;11.092;2023-03-23T00:36:38;13.20;50.70
3548;DHT22;1788;49.400;11.092;2023-03-23T00:39:05;13.20;50.80
3548;DHT22;1788;49.400;11.092;2023-03-23T00:41:32;13.20;50.90
3548;DHT22;1788;49.400;11.092;2023-03-23T00:43:58;13.20;50.90
3548;DHT22;1788;49.400;11.092;2023-03-23T00:46:26;13.10;50.90
3548;DHT22;1788;49.400;11.092;2023-03-23T00:48:52;13.10;50.90
3548;DHT22;1788;49.400;11.092;2023-03-23T00:51:20;13.10;51.00
3548;DHT22;1788;49.400;11.092;2023-03-23T00:53:47;13.10;51.00
3548;DHT22;1788;49.400;11.092;2023-03-23T00:56:14;13.10;51.00
3548;DHT22;1788;49.400;11.092;2023-03-23T00:58:41;13.10;51.10
3548;DHT22;1788;49.400;11.092;2023-03-23T01:01:09;13.10;51.10
3548;DHT22;1788;49.400;11.092;2023-03-23T01:03:35;13.10;51.10
3548;DHT22;1788;49.400;11.092;2023-03-23T01:08:28;13.10;51.10
3548;DHT22;1788;49.400;11.092;2023-03-23T01:11:01;13.10;51.20
3548;DHT22;1788;49.400;11.092;2023-03-23T01:13:21;13.10;51.10
3548;DHT22;1788;49.400;11.092;2023-03-23T01:15:48;13.10;51.10
3548;DHT22;1788;49.400;11.092;2023-03-23T01:18:15;13.10;51.10
3548;DHT22;1788;49.400;11.092;2023-03-23T01:20:41;13.10;51.10
3548;DHT22;1788;49.400;11.092;2023-03-23T01:23:08;13.10;51.10
3548;DHT22;1788;49.400;11.092;2023-03-23T01:25:35;13.20;51.20
3548;DHT22;1788;49.400;11.092;2023-03-23T01:28:01;13.20;51.20
3548;DHT22;1788;49.400;11.092;2023-03-23T01:30:28;13.20;51.20
3548;DHT22;1788;49.400;11.092;2023-03-23T01:32:54;13.20;51.20
3548;DHT22;1788;49.400;11.092;2023-03-23T01:35:21;13.20;51.10
3548;DHT22;1788;49.400;11.092;2023-03-23T01:37:47;13.20;51.10
3548;DHT22;1788;49.400;11.092;2023-03-23T01:40:14;13.20;51.10
3548;DHT22;1788;49.400;11.092;2023-03-23T01:42:41;13.20;51.10
3548;DHT22;1788;49.400;11.092;2023-03-23T01:47:35;13.20;51.10
3548;DHT22;1788;49.400;11.092;2023-03-23T01:50:01;13.20;51.00
3548;DHT22;1788;49.400;11.092;2023-03-23T01:52:28;13.30;51.10
3548;DHT22;1788;49.400;11.092;2023-03-23T01:54:55;13.30;51.00
3548;DHT22;1788;49.400;11.092;2023-03-23T01:57:23;13.40;51.00
3548;DHT22;1788;49.400;11.092;2023-03-23T01:59:49;13.30;50.90
3548;DHT22;1788;49.400;11.092;2023-03-23T02:02:16;13.50;50.90
3548;DHT22;1788;49.400;11.092;2023-03-23T02:04:42;13.50;50.90
3548;DHT22;1788;49.400;11.092;2023-03-23T02:07:09;13.50;50.80
3548;DHT22;1788;49.400;11.092;2023-03-23T02:09:36;13.60;50.70
3548;DHT22;1788;49.400;11.092;2023-03-23T02:12:02;13.60;50.70
3548;DHT22;1788;49.400;11.092;2023-03-23T02:14:30;13.70;50.60
3548;DHT22;1788;49.400;11.092;2023-03-23T02:34:05;13.90;50.10
3548;DHT22;1788;49.400;11.092;2023-03-23T02:36:34;14.00;50.00
3548;DHT22;1788;49.400;11.092;2023-03-23T02:41:28;14.00;49.90
3548;DHT22;1788;49.400;11.092;2023-03-23T02:43:53;14.00;49.90
3548;DHT22;1788;49.400;11.092;2023-03-23T02:46:19;14.00;49.80
3548;DHT22;1788;49.400;11.092;2023-03-23T02:48:46;14.10;49.80
3548;DHT22;1788;49.400;11.092;2023-03-23T02:51:12;14.10;49.70
3548;DHT22;1788;49.400;11.092;2023-03-23T02:53:39;14.10;49.70
3548;DHT22;1788;49.400;11.092;2023-03-23T02:56:07;14.10;49.60
3548;DHT22;1788;49.400;11.092;2023-03-23T02:58:33;14.10;49.50
3548;DHT22;1788;49.400;11.092;2023-03-23T03:01:10;14.10;49.50
3548;DHT22;1788;49.400;11.092;2023-03-23T03:03:28;14.20;49.50
3548;DHT22;1788;49.400;11.092;2023-03-23T03:13:19;14.10;49.30
3548;DHT22;1788;49.400;11.092;2023-03-23T03:20:36;14.20;49.40
3548;DHT22;1788;49.400;11.092;2023-03-23T03:23:02;14.20;49.40
3548;DHT22;1788;49.400;11.092;2023-03-23T03:25:29;14.20;49.40
3548;DHT22;1788;49.400;11.092;2023-03-23T03:30:24;14.20;49.40
3548;DHT22;1788;49.400;11.092;2023-03-23T03:32:49;14.20;49.30
3548;DHT22;1788;49.400;11.092;2023-03-23T03:35:15;14.20;49.30
3548;DHT22;1788;49.400;11.092;2023-03-23T03:37:42;14.20;49.30
3548;DHT22;1788;49.400;11.092;2023-03-23T03:40:10;14.20;49.30
3548;DHT22;1788;49.400;11.092;2023-03-23T03:42:35;14.20;49.30
3548;DHT22;1788;49.400;11.092;2023-03-23T03:45:02;14.20;49.30
3548;DHT22;1788;49.400;11.092;2023-03-23T03:47:29;14.20;49.40
3548;DHT22;1788;49.400;11.092;2023-03-23T03:49:56;14.20;49.30
3548;DHT22;1788;49.400;11.092;2023-03-23T03:52:22;14.20;49.30
3548;DHT22;1788;49.400;11.092;2023-03-23T03:54:49;14.20;49.30
3548;DHT22;1788;49.400;11.092;2023-03-23T03:57:16;14.20;49.30
3548;DHT22;1788;49.400;11.092;2023-03-23T03:59:42;14.20;49.30
3548;DHT22;1788;49.400;11.092;2023-03-23T04:02:09;14.20;49.40
3548;DHT22;1788;49.400;11.092;2023-03-23T04:04:35;14.20;49.40
3548;DHT22;1788;49.400;11.092;2023-03-23T04:07:02;14.20;49.40
3548;DHT22;1788;49.400;11.092;2023-03-23T04:09:29;14.20;49.40
3548;DHT22;1788;49.400;11.092;2023-03-23T04:11:56;14.20;49.40
3548;DHT22;1788;49.400;11.092;2023-03-23T04:14:23;14.20;49.40
3548;DHT22;1788;49.400;11.092;2023-03-23T04:16:50;14.20;49.40
3548;DHT22;1788;49.400;11.092;2023-03-23T04:19:17;14.20;49.40
3548;DHT22;1788;49.400;11.092;2023-03-23T04:21:43;14.20;49.50
3548;DHT22;1788;49.400;11.092;2023-03-23T04:24:10;14.20;49.50
3548;DHT22;1788;49.400;11.092;2023-03-23T04:26:37;14.20;49.60
3548;DHT22;1788;49.400;11.092;2023-03-23T04:29:04;14.10;49.50
3548;DHT22;1788;49.400;11.092;2023-03-23T04:31:31;14.10;49.70
3548;DHT22;1788;49.400;11.092;2023-03-23T04:33:58;14.10;49.60
3548;DHT22;1788;49.400;11.092;2023-03-23T04:36:24;14.20;49.70
3548;DHT22;1788;49.400;11.092;2023-03-23T04:38:51;14.20;49.80
3548;DHT22;1788;49.400;11.092;2023-03-23T04:41:18;14.10;49.70
3548;DHT22;1788;49.400;11.092;2023-03-23T04:43:45;14.10;49.90
3548;DHT22;1788;49.400;11.092;2023-03-23T04:46:12;14.10;49.80
3548;DHT22;1788;49.400;11.092;2023-03-23T04:48:39;14.10;49.90
3548;DHT22;1788;49.400;11.092;2023-03-23T04:51:06;14.10;49.90
3548;DHT22;1788;49.400;11.092;2023-03-23T04:53:32;14.10;49.90
3548;DHT22;1788;49.400;11.092;2023-03-23T04:55:59;14.10;50.00
3548;DHT22;1788;49.400;11.092;2023-03-23T04:58:25;14.20;50.10
3548;DHT22;1788;49.400;11.092;2023-03-23T05:00:53;14.10;50.10
3548;DHT22;1788;49.400;11.092;2023-03-23T05:03:19;14.10;50.00
3548;DHT22;1788;49.400;11.092;2023-03-23T05:05:47;14.10;50.10
3548;DHT22;1788;49.400;11.092;2023-03-23T05:08:14;14.10;50.10
3548;DHT22;1788;49.400;11.092;2023-03-23T05:10:41;14.10;50.10
3548;DHT22;1788;49.400;11.092;2023-03-23T05:13:07;14.10;50.00
3548;DHT22;1788;49.400;11.092;2023-03-23T05:15:34;14.20;50.10
3548;DHT22;1788;49.400;11.092;2023-03-23T05:18:01;14.20;50.10
3548;DHT22;1788;49.400;11.092;2023-03-23T05:20:28;14.20;50.10
3548;DHT22;1788;49.400;11.092;2023-03-23T05:22:55;14.20;50.10
3548;DHT22;1788;49.400;11.092;2023-03-23T05:25:22;14.20;50.10
3548;DHT22;1788;49.400;11.092;2023-03-23T05:27:49;14.20;50.10
3548;DHT22;1788;49.400;11.092;2023-03-23T05:30:16;14.30;50.10
3548;DHT22;1788;49.400;11.092;2023-03-23T05:32:43;14.30;50.10
3548;DHT22;1788;49.400;11.092;2023-03-23T05:35:09;14.30;50.10
3548;DHT22;1788;49.400;11.092;2023-03-23T05:37:35;14.30;50.00
3548;DHT22;1788;49.400;11.092;2023-03-23T05:40:02;14.30;50.00
3548;DHT22;1788;49.400;11.092;2023-03-23T05:42:29;14.30;50.00
3548;DHT22;1788;49.400;11.092;2023-03-23T05:44:56;14.30;50.00
3548;DHT22;1788;49.400;11.092;2023-03-23T05:47:23;14.30;49.60
3548;DHT22;1788;49.400;11.092;2023-03-23T05:49:50;14.30;50.00
3548;DHT22;1788;49.400;11.092;2023-03-23T05:52:17;14.30;50.00
3548;DHT22;1788;49.400;11.092;2023-03-23T05:54:43;14.40;50.00
3548;DHT22;1788;49.400;11.092;2023-03-23T05:57:10;14.40;50.00
3548;DHT22;1788;49.400;11.092;2023-03-23T05:59:37;14.40;49.90
3548;DHT22;1788;49.400;11.092;2023-03-23T06:02:04;14.40;49.90
3548;DHT22;1788;49.400;11.092;2023-03-23T06:04:31;14.50;49.90
3548;DHT22;1788;49.400;11.092;2023-03-23T06:06:58;14.50;49.80
3548;DHT22;1788;49.400;11.092;2023-03-23T06:09:25;14.60;49.90
3548;DHT22;1788;49.400;11.092;2023-03-23T06:11:52;14.50;49.70
3548;DHT22;1788;49.400;11.092;2023-03-23T06:14:19;14.60;49.70
3548;DHT22;1788;49.400;11.092;2023-03-23T06:16:46;14.50;49.70
3548;DHT22;1788;49.400;11.092;2023-03-23T06:19:13;14.60;49.70
3548;DHT22;1788;49.400;11.092;2023-03-23T06:21:39;14.60;49.70
3548;DHT22;1788;49.400;11.092;2023-03-23T06:24:06;14.60;49.70
3548;DHT22;1788;49.400;11.092;2023-03-23T06:26:39;14.70;49.80
3548;DHT22;1788;49.400;11.092;2023-03-23T06:29:00;14.70;49.80
3548;DHT22;1788;49.400;11.092;2023-03-23T06:31:27;14.70;49.80
3548;DHT22;1788;49.400;11.092;2023-03-23T06:33:54;14.70;49.70
3548;DHT22;1788;49.400;11.092;2023-03-23T06:36:20;14.80;49.80
3548;DHT22;1788;49.400;11.092;2023-03-23T06:38:47;14.80;49.80
3548;DHT22;1788;49.400;11.092;2023-03-23T06:41:14;14.80;49.70
3548;DHT22;1788;49.400;11.092;2023-03-23T06:43:41;14.80;49.70
3548;DHT22;1788;49.400;11.092;2023-03-23T06:46:08;14.80;49.70
3548;DHT22;1788;49.400;11.092;2023-03-23T06:48:35;14.90;50.30
3548;DHT22;1788;49.400;11.092;2023-03-23T06:51:02;14.90;49.70
3548;DHT22;1788;49.400;11.092;2023-03-23T06:53:29;14.90;50.30
3548;DHT22;1788;49.400;11.092;2023-03-23T06:55:56;14.90;49.70
3548;DHT22;1788;49.400;11.092;2023-03-23T06:58:22;15.00;49.80
3548;DHT22;1788;49.400;11.092;2023-03-23T07:00:53;15.00;49.70
3548;DHT22;1788;49.400;11.092;2023-03-23T07:03:15;15.00;49.60
3548;DHT22;1788;49.400;11.092;2023-03-23T07:05:45;15.10;49.70
3548;DHT22;1788;49.400;11.092;2023-03-23T07:08:09;15.10;49.60
3548;DHT22;1788;49.400;11.092;2023-03-23T07:10:37;15.30;50.10
3548;DHT22;1788;49.400;11.092;2023-03-23T07:13:03;15.20;49.60
3548;DHT22;1788;49.400;11.092;2023-03-23T07:15:30;15.30;49.60
3548;DHT22;1788;49.400;11.092;2023-03-23T07:17:57;15.40;49.50
3548;DHT22;1788;49.400;11.092;2023-03-23T07:20:23;15.50;50.00
3548;DHT22;1788;49.400;11.092;2023-03-23T07:22:51;15.70;49.50
3548;DHT22;1788;49.400;11.092;2023-03-23T07:25:17;15.70;49.40
3548;DHT22;1788;49.400;11.092;2023-03-23T07:27:45;15.80;49.30
3548;DHT22;1788;49.400;11.092;2023-03-23T07:30:11;15.80;49.30
3548;DHT22;1788;49.400;11.092;2023-03-23T07:32:39;15.90;49.30
3548;DHT22;1788;49.400;11.092;2023-03-23T07:35:05;15.90;49.20
3548;DHT22;1788;49.400;11.092;2023-03-23T07:37:32;16.00;49.20
3548;DHT22;1788;49.400;11.092;2023-03-23T07:39:58;16.00;49.20
3548;DHT22;1788;49.400;11.092;2023-03-23T07:42:25;16.00;49.10
3548;DHT22;1788;49.400;11.092;2023-03-23T07:44:52;16.00;49.10
3548;DHT22;1788;49.400;11.092;2023-03-23T07:47:18;16.10;49.10
3548;DHT22;1788;49.400;11.092;2023-03-23T07:49:45;16.10;49.10
3548;DHT22;1788;49.400;11.092;2023-03-23T07:52:11;16.10;49.70
3548;DHT22;1788;49.400;11.092;2023-03-23T07:54:39;16.10;49.30
3548;DHT22;1788;49.400;11.092;2023-03-23T07:57:05;16.10;49.10
3548;DHT22;1788;49.400;11.092;2023-03-23T07:59:32;16.10;49.10
3548;DHT22;1788;49.400;11.092;2023-03-23T08:01:59;16.20;49.10
3548;DHT22;1788;49.400;11.092;2023-03-23T08:04:25;16.20;49.10
3548;DHT22;1788;49.400;11.092;2023-03-23T08:06:52;16.30;49.20
3548;DHT22;1788;49.400;11.092;2023-03-23T08:09:19;16.30;49.20
3548;DHT22;1788;49.400;11.092;2023-03-23T08:11:45;16.30;49.20
3548;DHT22;1788;49.400;11.092;2023-03-23T08:14:12;16.40;49.40
3548;DHT22;1788;49.400;11.092;2023-03-23T08:16:39;16.50;49.60
3548;DHT22;1788;49.400;11.092;2023-03-23T08:19:06;16.50;49.60
3548;DHT22;1788;49.400;11.092;2023-03-23T08:21:33;16.50;49.40
3548;DHT22;1788;49.400;11.092;2023-03-23T08:24:00;16.50;49.40
3548;DHT22;1788;49.400;11.092;2023-03-23T08:26:27;16.50;49.40
3548;DHT22;1788;49.400;11.092;2023-03-23T08:28:53;16.50;49.40
3548;DHT22;1788;49.400;11.092;2023-03-23T08:31:20;16.50;49.40
3548;DHT22;1788;49.400;11.092;2023-03-23T08:33:47;16.60;49.70
3548;DHT22;1788;49.400;11.092;2023-03-23T08:36:14;16.50;49.60
3548;DHT22;1788;49.400;11.092;2023-03-23T08:38:41;16.60;49.80
3548;DHT22;1788;49.400;11.092;2023-03-23T08:41:08;16.50;49.70
3548;DHT22;1788;49.400;11.092;2023-03-23T08:43:35;16.60;49.80
3548;DHT22;1788;49.400;11.092;2023-03-23T08:46:02;16.50;50.00
3548;DHT22;1788;49.400;11.092;2023-03-23T08:48:28;16.60;50.20
3548;DHT22;1788;49.400;11.092;2023-03-23T08:50:55;16.60;50.30
3548;DHT22;1788;49.400;11.092;2023-03-23T08:53:22;16.60;50.40
3548;DHT22;1788;49.400;11.092;2023-03-23T08:55:49;16.60;50.60
3548;DHT22;1788;49.400;11.092;2023-03-23T08:58:16;16.60;50.50
3548;DHT22;1788;49.400;11.092;2023-03-23T09:00:43;16.60;50.70
3548;DHT22;1788;49.400;11.092;2023-03-23T09:03:10;16.50;50.60
3548;DHT22;1788;49.400;11.092;2023-03-23T09:05:37;16.60;50.90
3548;DHT22;1788;49.400;11.092;2023-03-23T09:08:04;16.50;50.80
3548;DHT22;1788;49.400;11.092;2023-03-23T09:10:31;16.60;51.00
3548;DHT22;1788;49.400;11.092;2023-03-23T09:12:58;16.60;51.00
3548;DHT22;1788;49.400;11.092;2023-03-23T09:15:25;16.60;51.20
3548;DHT22;1788;49.400;11.092;2023-03-23T09:17:52;16.60;51.20
3548;DHT22;1788;49.400;11.092;2023-03-23T09:20:20;16.60;51.20
3548;DHT22;1788;49.400;11.092;2023-03-23T09:22:46;16.70;51.30
3548;DHT22;1788;49.400;11.092;2023-03-23T09:25:13;16.70;51.30
3548;DHT22;1788;49.400;11.092;2023-03-23T09:27:39;16.80;51.40
3548;DHT22;1788;49.400;11.092;2023-03-23T09:30:06;16.70;51.30
3548;DHT22;1788;49.400;11.092;2023-03-23T09:32:34;16.80;51.40
3548;DHT22;1788;49.400;11.092;2023-03-23T09:35:00;16.80;51.40
3548;DHT22;1788;49.400;11.092;2023-03-23T09:37:26;16.90;51.50
3548;DHT22;1788;49.400;11.092;2023-03-23T09:39:53;16.90;51.50
3548;DHT22;1788;49.400;11.092;2023-03-23T09:49:43;17.00;51.50
3548;DHT22;1788;49.400;11.092;2023-03-23T09:54:35;17.10;51.40
3548;DHT22;1788;49.400;11.092;2023-03-23T09:57:01;17.20;51.40
3548;DHT22;1788;49.400;11.092;2023-03-23T10:04:25;17.40;51.30
3548;DHT22;1788;49.400;11.092;2023-03-23T10:06:49;17.40;51.20
3548;DHT22;1788;49.400;11.092;2023-03-23T10:09:16;17.50;51.20
3548;DHT22;1788;49.400;11.092;2023-03-23T10:14:12;17.60;50.90
3548;DHT22;1788;49.400;11.092;2023-03-23T10:21:30;17.60;50.40
3548;DHT22;1788;49.400;11.092;2023-03-23T10:23:58;17.50;50.40
3548;DHT22;1788;49.400;11.092;2023-03-23T10:28:54;17.50;50.40
3548;DHT22;1788;49.400;11.092;2023-03-23T10:31:20;17.50;50.00
3548;DHT22;1788;49.400;11.092;2023-03-23T10:33:47;17.50;49.90
3548;DHT22;1788;49.400;11.092;2023-03-23T10:43:32;17.40;49.70
3548;DHT22;1788;49.400;11.092;2023-03-23T10:50:54;17.30;49.70
3548;DHT22;1788;49.400;11.092;2023-03-23T10:53:21;17.30;49.80
3548;DHT22;1788;49.400;11.092;2023-03-23T10:55:46;17.30;49.80
3548;DHT22;1788;49.400;11.092;2023-03-23T11:00:41;17.30;49.90
3548;DHT22;1788;49.400;11.092;2023-03-23T11:03:20;17.20;49.80
3548;DHT22;1788;49.400;11.092;2023-03-23T11:05:35;17.20;49.90
3548;DHT22;1788;49.400;11.092;2023-03-23T11:07:59;17.20;50.00
3548;DHT22;1788;49.400;11.092;2023-03-23T11:10:35;17.20;50.00
3548;DHT22;1788;49.400;11.092;2023-03-23T11:15:23;17.20;50.00
3548;DHT22;1788;49.400;11.092;2023-03-23T11:17:54;17.20;50.00
3548;DHT22;1788;49.400;11.092;2023-03-23T11:20:19;17.20;50.10
3548;DHT22;1788;49.400;11.092;2023-03-23T11:22:40;17.20;50.20
3548;DHT22;1788;49.400;11.092;2023-03-23T11:25:09;17.10;50.20
3548;DHT22;1788;49.400;11.092;2023-03-23T11:27:34;17.20;50.30
3548;DHT22;1788;49.400;11.092;2023-03-23T11:30:08;17.10;50.20
3548;DHT22;1788;49.400;11.092;2023-03-23T11:32:28;17.10;50.30
3548;DHT22;1788;49.400;11.092;2023-03-23T11:34:56;17.10;50.30
3548;DHT22;1788;49.400;11.092;2023-03-23T11:39:53;17.00;50.40
3548;DHT22;1788;49.400;11.092;2023-03-23T11:44:43;17.10;50.60
3548;DHT22;1788;49.400;11.092;2023-03-23T11:52:09;17.10;50.70
3548;DHT22;1788;49.400;11.092;2023-03-23T11:56:57;17.20;50.80
3548;DHT22;1788;49.400;11.092;2023-03-23T11:59:26;17.30;50.90
3548;DHT22;1788;49.400;11.092;2023-03-23T12:04:24;17.40;50.90
3548;DHT22;1788;49.400;11.092;2023-03-23T12:21:30;17.10;51.10
3548;DHT22;1788;49.400;11.092;2023-03-23T12:28:50;17.20;51.30
3548;DHT22;1788;49.400;11.092;2023-03-23T12:33:45;17.30;51.40
3548;DHT22;1788;49.400;11.092;2023-03-23T12:43:32;17.70;51.10
3548;DHT22;1788;49.400;11.092;2023-03-23T12:55:44;17.90;51.00
3548;DHT22;1788;49.400;11.092;2023-03-23T13:03:14;17.80;50.90
3548;DHT22;1788;49.400;11.092;2023-03-23T13:05:33;17.80;50.90
3548;DHT22;1788;49.400;11.092;2023-03-23T13:07:58;17.70;50.80
3548;DHT22;1788;49.400;11.092;2023-03-23T13:10:26;17.60;50.90
3548;DHT22;1788;49.400;11.092;2023-03-23T13:12:50;17.60;50.90
3548;DHT22;1788;49.400;11.092;2023-03-23T13:25:06;17.70;51.00
3548;DHT22;1788;49.400;11.092;2023-03-23T13:27:31;17.70;51.00
3548;DHT22;1788;49.400;11.092;2023-03-23T13:29:58;17.70;50.90
3548;DHT22;1788;49.400;11.092;2023-03-23T13:34:51;17.70;50.70
3548;DHT22;1788;49.400;11.092;2023-03-23T13:44:41;17.80;50.70
3548;DHT22;1788;49.400;11.092;2023-03-23T13:47:07;17.80;51.20
3548;DHT22;1788;49.400;11.092;2023-03-23T13:49:33;18.20;50.60
3548;DHT22;1788;49.400;11.092;2023-03-23T13:52:01;18.20;50.50
3548;DHT22;1788;49.400;11.092;2023-03-23T14:01:46;18.60;50.10
3548;DHT22;1788;49.400;11.092;2023-03-23T14:06:41;18.70;50.10
3548;DHT22;1788;49.400;11.092;2023-03-23T14:09:12;18.60;50.00
3548;DHT22;1788;49.400;11.092;2023-03-23T14:11:44;18.60;50.00
3548;DHT22;1788;49.400;11.092;2023-03-23T14:14:03;18.60;50.00
3548;DHT22;1788;49.400;11.092;2023-03-23T14:18:56;18.50;50.00
3548;DHT22;1788;49.400;11.092;2023-03-23T14:23:48;18.40;50.00
3548;DHT22;1788;49.400;11.092;2023-03-23T14:26:16;18.40;50.10
3548;DHT22;1788;49.400;11.092;2023-03-23T14:28:43;18.40;50.20
3548;DHT22;1788;49.400;11.092;2023-03-23T14:33:37;18.50;50.70
3548;DHT22;1788;49.400;11.092;2023-03-23T14:36:03;18.40;50.10
3548;DHT22;1788;49.400;11.092;2023-03-23T14:38:29;18.40;50.10
3548;DHT22;1788;49.400;11.092;2023-03-23T14:40:59;18.40;49.70
3548;DHT22;1788;49.400;11.092;2023-03-23T14:43:23;18.50;50.30
3548;DHT22;1788;49.400;11.092;2023-03-23T14:48:17;18.50;50.30
3548;DHT22;1788;49.400;11.092;2023-03-23T14:53:13;18.50;50.30
3548;DHT22;1788;49.400;11.092;2023-03-23T14:55:41;18.50;50.30
3548;DHT22;1788;49.400;11.092;2023-03-23T14:58:06;18.50;50.30
3548;DHT22;1788;49.400;11.092;2023-03-23T15:00:33;18.40;50.30
3548;DHT22;1788;49.400;11.092;2023-03-23T15:02:58;18.40;50.30
3548;DHT22;1788;49.400;11.092;2023-03-23T15:05:26;18.40;50.30
3548;DHT22;1788;49.400;11.092;2023-03-23T15:07:53;18.30;50.40
3548;DHT22;1788;49.400;11.092;2023-03-23T15:10:20;18.20;50.40
3548;DHT22;1788;49.400;11.092;2023-03-23T15:12:47;18.20;50.60
3548;DHT22;1788;49.400;11.092;2023-03-23T15:17:40;18.20;50.60
3548;DHT22;1788;49.400;11.092;2023-03-23T15:20:08;18.20;50.60
3548;DHT22;1788;49.400;11.092;2023-03-23T15:22:33;18.20;50.60
3548;DHT22;1788;49.400;11.092;2023-03-23T15:27:28;18.10;50.70
3548;DHT22;1788;49.400;11.092;2023-03-23T15:29:55;18.00;50.80
3548;DHT22;1788;49.400;11.092;2023-03-23T15:32:21;18.00;50.80
3548;DHT22;1788;49.400;11.092;2023-03-23T15:34:47;17.90;50.80
3548;DHT22;1788;49.400;11.092;2023-03-23T15:37:18;17.90;50.90
3548;DHT22;1788;49.400;11.092;2023-03-23T15:39:40;17.80;50.90
3548;DHT22;1788;49.400;11.092;2023-03-23T15:42:07;17.80;50.90
3548;DHT22;1788;49.400;11.092;2023-03-23T15:44:35;17.70;51.10
3548;DHT22;1788;49.400;11.092;2023-03-23T15:47:03;17.70;51.10
3548;DHT22;1788;49.400;11.092;2023-03-23T15:49:29;17.70;51.20
3548;DHT22;1788;49.400;11.092;2023-03-23T15:51:55;17.70;51.20
3548;DHT22;1788;49.400;11.092;2023-03-23T15:54:22;17.60;51.20
3548;DHT22;1788;49.400;11.092;2023-03-23T15:56:49;17.60;51.30
3548;DHT22;1788;49.400;11.092;2023-03-23T15:59:15;17.60;51.40
3548;DHT22;1788;49.400;11.092;2023-03-23T16:01:43;17.60;51.60
3548;DHT22;1788;49.400;11.092;2023-03-23T16:04:11;17.60;51.60
3548;DHT22;1788;49.400;11.092;2023-03-23T16:06:37;17.60;51.70
3548;DHT22;1788;49.400;11.092;2023-03-23T16:09:04;17.50;51.60
3548;DHT22;1788;49.400;11.092;2023-03-23T16:11:30;17.60;51.80
3548;DHT22;1788;49.400;11.092;2023-03-23T16:13:57;17.60;51.80
3548;DHT22;1788;49.400;11.092;2023-03-23T16:18:50;17.60;51.90
3548;DHT22;1788;49.400;11.092;2023-03-23T16:21:17;17.60;51.90
3548;DHT22;1788;49.400;11.092;2023-03-23T16:23:44;17.60;52.10
3548;DHT22;1788;49.400;11.092;2023-03-23T16:26:12;17.60;52.00
3548;DHT22;1788;49.400;11.092;2023-03-23T16:28:38;17.60;52.10
3548;DHT22;1788;49.400;11.092;2023-03-23T16:31:04;17.60;52.20
3548;DHT22;1788;49.400;11.092;2023-03-23T16:33:31;17.60;52.20
3548;DHT22;1788;49.400;11.092;2023-03-23T16:35:58;17.60;52.30
3548;DHT22;1788;49.400;11.092;2023-03-23T16:38:25;17.60;52.30
3548;DHT22;1788;49.400;11.092;2023-03-23T16:40:52;17.60;52.50
3548;DHT22;1788;49.400;11.092;2023-03-23T16:43:19;17.60;52.40
3548;DHT22;1788;49.400;11.092;2023-03-23T16:45:46;17.60;52.50
3548;DHT22;1788;49.400;11.092;2023-03-23T16:48:13;17.60;52.50
3548;DHT22;1788;49.400;11.092;2023-03-23T16:50:39;17.60;52.50
3548;DHT22;1788;49.400;11.092;2023-03-23T16:53:06;17.60;52.50
3548;DHT22;1788;49.400;11.092;2023-03-23T16:55:33;17.60;52.60
3548;DHT22;1788;49.400;11.092;2023-03-23T16:57:59;17.60;52.60
3548;DHT22;1788;49.400;11.092;2023-03-23T17:00:26;17.60;52.60
3548;DHT22;1788;49.400;11.092;2023-03-23T17:02:53;17.60;52.70
3548;DHT22;1788;49.400;11.092;2023-03-23T17:05:19;17.60;52.70
3548;DHT22;1788;49.400;11.092;2023-03-23T17:07:46;17.60;52.70
3548;DHT22;1788;49.400;11.092;2023-03-23T17:10:13;17.60;52.80
3548;DHT22;1788;49.400;11.092;2023-03-23T17:12:39;17.60;52.80
3548;DHT22;1788;49.400;11.092;2023-03-23T17:15:06;17.60;52.80
3548;DHT22;1788;49.400;11.092;2023-03-23T17:17:32;17.60;52.80
3548;DHT22;1788;49.400;11.092;2023-03-23T17:19:59;17.70;52.90
3548;DHT22;1788;49.400;11.092;2023-03-23T17:22:25;17.70;52.90
3548;DHT22;1788;49.400;11.092;2023-03-23T17:24:53;17.60;52.90
3548;DHT22;1788;49.400;11.092;2023-03-23T17:27:20;17.60;52.90
3548;DHT22;1788;49.400;11.092;2023-03-23T17:29:47;17.60;53.10
3548;DHT22;1788;49.400;11.092;2023-03-23T17:32:13;17.60;53.10
3548;DHT22;1788;49.400;11.092;2023-03-23T17:34:40;17.60;53.10
3548;DHT22;1788;49.400;11.092;2023-03-23T17:37:07;17.50;53.00
3548;DHT22;1788;49.400;11.092;2023-03-23T17:39:33;17.40;53.00
3548;DHT22;1788;49.400;11.092;2023-03-23T17:42:01;17.30;53.10
3548;DHT22;1788;49.400;11.092;2023-03-23T17:44:27;17.20;53.60
3548;DHT22;1788;49.400;11.092;2023-03-23T17:46:54;17.20;53.10
3548;DHT22;1788;49.400;11.092;2023-03-23T17:49:21;17.20;53.20
3548;DHT22;1788;49.400;11.092;2023-03-23T17:51:47;17.20;53.20
3548;DHT22;1788;49.400;11.092;2023-03-23T17:54:14;17.10;53.80
3548;DHT22;1788;49.400;11.092;2023-03-23T17:56:41;17.00;53.20
3548;DHT22;1788;49.400;11.092;2023-03-23T17:59:08;17.10;53.30
3548;DHT22;1788;49.400;11.092;2023-03-23T18:01:35;17.10;53.30
3548;DHT22;1788;49.400;11.092;2023-03-23T18:04:02;17.00;53.20
3548;DHT22;1788;49.400;11.092;2023-03-23T18:06:28;17.00;53.20
3548;DHT22;1788;49.400;11.092;2023-03-23T18:08:55;17.00;53.30
3548;DHT22;1788;49.400;11.092;2023-03-23T18:11:22;17.00;53.30
3548;DHT22;1788;49.400;11.092;2023-03-23T18:13:49;17.00;53.30
3548;DHT22;1788;49.400;11.092;2023-03-23T18:16:16;17.00;53.40
3548;DHT22;1788;49.400;11.092;2023-03-23T18:18:43;17.00;53.40
3548;DHT22;1788;49.400;11.092;2023-03-23T18:21:09;16.90;53.30
3548;DHT22;1788;49.400;11.092;2023-03-23T18:23:36;16.90;53.30
3548;DHT22;1788;49.400;11.092;2023-03-23T18:26:03;16.90;53.30
3548;DHT22;1788;49.400;11.092;2023-03-23T18:28:30;16.90;53.40
3548;DHT22;1788;49.400;11.092;2023-03-23T18:33:24;16.90;53.40
3548;DHT22;1788;49.400;11.092;2023-03-23T18:35:55;16.80;53.30
3548;DHT22;1788;49.400;11.092;2023-03-23T18:38:17;16.90;53.30
3548;DHT22;1788;49.400;11.092;2023-03-23T18:40:44;16.80;53.30
3548;DHT22;1788;49.400;11.092;2023-03-23T18:43:11;16.80;53.30
3548;DHT22;1788;49.400;11.092;2023-03-23T18:45:37;16.80;53.30
3548;DHT22;1788;49.400;11.092;2023-03-23T18:48:04;16.80;53.30
3548;DHT22;1788;49.400;11.092;2023-03-23T18:50:31;16.80;53.30
3548;DHT22;1788;49.400;11.092;2023-03-23T18:52:57;16.80;53.40
3548;DHT22;1788;49.400;11.092;2023-03-23T18:55:24;16.80;53.50
3548;DHT22;1788;49.400;11.092;2023-03-23T18:57:51;16.80;53.50